Time;durP1;ratioP1;P1;durP2;ratioP2;P2;SDS_P1;SDS_P2;PMS_P1;PMS_P2;Temp;Humidity;BMP_temperature;BMP_pressure;BME280_temperature;BME280_humidity;BME280_pressure;Samples;Min_cycle;Max_cycle;Signal;HPM_P1;HPM_P2
2021/09/06 00:02:00;;;;;;;3.20;2.40;;;24.10;52.40;;;;;;5023946;28;20025;-54
2021/09/06 00:04:26;;;;;;;3.10;2.30;;;24.10;51.90;;;;;;5009883;28;20037;-51
2021/09/06 00:06:52;;;;;;;4.05;2.20;;;24.00;51.80;;;;;;5027581;28;20029;-56
2021/09/06 00:09:17;;;;;;;2.88;2.00;;;24.00;51.80;;;;;;5023271;28;20045;-51
2021/09/06 00:11:43;;;;;;;3.17;2.38;;;24.00;51.90;;;;;;5024172;28;20030;-53
2021/09/06 00:14:08;;;;;;;2.88;2.28;;;24.00;51.80;;;;;;5023503;28;20029;-49
2021/09/06 00:16:34;;;;;;;3.25;2.40;;;24.00;51.80;;;;;;5021210;28;20029;-60
2021/09/06 00:18:59;;;;;;;2.97;2.17;;;24.00;51.80;;;;;;5023007;28;20034;-53
2021/09/06 00:21:25;;;;;;;3.75;2.60;;;24.00;51.80;;;;;;5020828;28;20116;-60
2021/09/06 00:23:51;;;;;;;2.90;2.20;;;24.00;52.30;;;;;;5021359;28;20037;-55
2021/09/06 00:26:16;;;;;;;3.35;2.40;;;24.00;51.80;;;;;;5028147;28;20065;-47
2021/09/06 00:28:42;;;;;;;3.05;2.42;;;24.00;51.80;;;;;;5021980;28;20060;-57
2021/09/06 00:31:08;;;;;;;3.03;2.05;;;24.00;51.80;;;;;;5011085;28;20365;-52
2021/09/06 00:33:34;;;;;;;2.85;2.15;;;24.00;51.80;;;;;;5026054;28;20030;-55
2021/09/06 00:36:00;;;;;;;3.45;2.40;;;23.90;51.80;;;;;;5026327;28;20036;-50
2021/09/06 00:38:26;;;;;;;3.25;2.40;;;24.00;51.80;;;;;;5025780;28;20038;-57
2021/09/06 00:40:51;;;;;;;2.83;2.10;;;23.90;51.70;;;;;;5026526;28;20068;-54
2021/09/06 00:43:18;;;;;;;3.53;2.20;;;24.00;51.80;;;;;;5025354;28;20041;-55
2021/09/06 00:45:46;;;;;;;2.90;2.22;;;23.90;51.70;;;;;;5027870;28;20069;-56
2021/09/06 00:48:18;;;;;;;3.13;2.25;;;23.90;51.70;;;;;;5026042;28;20033;-58
2021/09/06 00:50:45;;;;;;;3.42;2.35;;;23.90;51.70;;;;;;5021506;28;20100;-58
2021/09/06 00:53:11;;;;;;;2.92;2.13;;;23.90;51.80;;;;;;5028264;28;20108;-51
2021/09/06 00:55:36;;;;;;;3.13;2.22;;;23.90;51.70;;;;;;5026916;28;20578;-58
2021/09/06 00:58:02;;;;;;;2.83;2.03;;;23.90;51.70;;;;;;5027261;28;20470;-59
2021/09/06 01:00:28;;;;;;;2.97;2.20;;;23.90;51.70;;;;;;5025886;28;20524;-53
2021/09/06 01:02:53;;;;;;;2.63;2.00;;;23.90;51.70;;;;;;5018106;28;20136;-56
2021/09/06 01:05:19;;;;;;;3.08;2.30;;;23.90;51.80;;;;;;5025256;28;20028;-52
2021/09/06 01:07:45;;;;;;;3.10;2.40;;;23.90;51.80;;;;;;5015896;28;20125;-55
2021/09/06 01:10:13;;;;;;;3.13;2.15;;;23.90;51.80;;;;;;5022277;28;20080;-58
2021/09/06 01:12:39;;;;;;;2.72;2.05;;;23.90;51.80;;;;;;5014996;28;20065;-47
2021/09/06 01:15:06;;;;;;;3.13;2.28;;;23.90;51.80;;;;;;5027622;28;20026;-48
2021/09/06 01:17:33;;;;;;;3.33;2.22;;;23.80;51.70;;;;;;5026697;28;20025;-60
2021/09/06 01:19:59;;;;;;;3.30;2.30;;;23.80;51.70;;;;;;5021421;28;20017;-57
2021/09/06 01:22:25;;;;;;;3.17;2.20;;;23.90;51.80;;;;;;5012324;28;20045;-58
2021/09/06 01:24:51;;;;;;;2.75;1.98;;;23.80;51.70;;;;;;5014873;28;20030;-58
2021/09/06 01:27:16;;;;;;;3.67;2.10;;;23.80;51.70;;;;;;5027376;28;20061;-58
2021/09/06 01:29:43;;;;;;;3.13;1.92;;;23.80;51.70;;;;;;5026797;28;20096;-46
2021/09/06 01:32:09;;;;;;;3.00;2.33;;;23.80;51.70;;;;;;5020962;28;20110;-60
2021/09/06 01:34:35;;;;;;;2.83;2.13;;;23.80;51.70;;;;;;5017875;28;20048;-58
2021/09/06 01:37:02;;;;;;;2.78;2.10;;;23.90;51.80;;;;;;5024317;28;20486;-55
2021/09/06 01:39:28;;;;;;;2.60;1.95;;;23.80;51.70;;;;;;5026097;28;20025;-60
2021/09/06 01:41:53;;;;;;;3.08;1.98;;;23.80;51.70;;;;;;5024755;28;20136;-58
2021/09/06 01:44:19;;;;;;;2.90;2.00;;;23.80;51.70;;;;;;5016970;28;20049;-48
2021/09/06 01:46:45;;;;;;;2.35;1.77;;;23.80;51.70;;;;;;5019661;28;20063;-58
2021/09/06 01:49:11;;;;;;;2.60;1.90;;;23.80;51.70;;;;;;5011884;28;20034;-50
2021/09/06 01:51:36;;;;;;;2.60;1.95;;;23.80;51.70;;;;;;5025229;28;20048;-60
2021/09/06 01:54:02;;;;;;;2.97;2.20;;;23.80;51.70;;;;;;5009303;28;20025;-52
2021/09/06 01:56:27;;;;;;;2.78;2.00;;;23.80;51.70;;;;;;5010541;28;20041;-52
2021/09/06 01:58:53;;;;;;;2.72;2.05;;;23.80;51.70;;;;;;5013349;28;20029;-57
2021/09/06 02:01:19;;;;;;;2.80;2.00;;;23.80;51.80;;;;;;5010156;28;20084;-53
2021/09/06 02:03:45;;;;;;;2.90;2.10;;;23.80;51.70;;;;;;5016617;28;20468;-50
2021/09/06 02:06:11;;;;;;;3.00;2.03;;;23.80;51.70;;;;;;5010768;28;20030;-57
2021/09/06 02:08:37;;;;;;;3.28;1.90;;;23.80;51.70;;;;;;5022273;28;20741;-54
2021/09/06 02:11:03;;;;;;;2.85;2.10;;;23.80;51.70;;;;;;5011059;28;20112;-59
2021/09/06 02:13:29;;;;;;;3.22;2.10;;;23.70;51.70;;;;;;5011225;28;20069;-60
2021/09/06 02:15:55;;;;;;;2.80;1.90;;;23.70;51.70;;;;;;5022532;28;20113;-57
2021/09/06 02:18:21;;;;;;;2.75;1.98;;;23.70;51.70;;;;;;5020881;28;20041;-57
2021/09/06 02:20:47;;;;;;;2.58;1.90;;;23.70;51.70;;;;;;5026796;28;20465;-58
2021/09/06 02:23:12;;;;;;;2.65;2.00;;;23.70;51.70;;;;;;5021353;28;20094;-54
2021/09/06 02:25:38;;;;;;;3.03;2.20;;;23.70;51.70;;;;;;5021924;28;20022;-60
2021/09/06 02:28:04;;;;;;;3.13;2.10;;;23.70;51.70;;;;;;5025224;28;20029;-58
2021/09/06 02:30:29;;;;;;;2.00;1.70;;;23.70;51.70;;;;;;5018956;28;20030;-53
2021/09/06 02:32:55;;;;;;;2.65;1.95;;;23.70;51.70;;;;;;5017732;28;20037;-56
2021/09/06 02:35:21;;;;;;;3.20;2.10;;;23.70;51.70;;;;;;5013442;28;20113;-51
2021/09/06 02:37:47;;;;;;;3.00;2.30;;;23.70;51.70;;;;;;5013220;28;20548;-59
2021/09/06 02:40:14;;;;;;;2.90;1.85;;;23.70;51.70;;;;;;5025921;28;20068;-56
2021/09/06 02:42:40;;;;;;;3.10;2.00;;;23.70;51.70;;;;;;5021509;28;20489;-60
2021/09/06 02:45:06;;;;;;;2.25;1.80;;;23.70;51.70;;;;;;5021838;28;20044;-54
2021/09/06 02:47:32;;;;;;;3.60;2.03;;;23.70;51.70;;;;;;5020507;28;20083;-48
2021/09/06 02:49:58;;;;;;;2.95;2.03;;;23.70;51.70;;;;;;5025327;28;20104;-60
2021/09/06 02:52:24;;;;;;;3.15;2.10;;;23.70;51.70;;;;;;5024882;28;20099;-53
2021/09/06 02:54:50;;;;;;;2.50;1.90;;;23.70;51.70;;;;;;5018709;28;20826;-46
2021/09/06 02:57:16;;;;;;;3.53;2.10;;;23.70;51.70;;;;;;5017405;28;20057;-58
2021/09/06 02:59:41;;;;;;;2.40;1.77;;;23.60;51.60;;;;;;5017411;28;20093;-58
2021/09/06 03:02:07;;;;;;;2.75;1.83;;;23.70;51.70;;;;;;5025358;28;20038;-48
2021/09/06 03:04:33;;;;;;;2.40;1.85;;;23.60;51.60;;;;;;5023244;28;20041;-60
2021/09/06 03:06:59;;;;;;;2.92;2.05;;;23.60;51.70;;;;;;5020641;28;20028;-50
2021/09/06 03:09:24;;;;;;;2.65;2.10;;;23.60;51.70;;;;;;5014953;28;20082;-49
2021/09/06 03:11:50;;;;;;;2.90;1.90;;;23.60;51.70;;;;;;5022303;28;20033;-52
2021/09/06 03:14:15;;;;;;;2.30;1.83;;;23.60;51.70;;;;;;5015929;28;20062;-51
2021/09/06 03:16:41;;;;;;;2.75;1.92;;;23.60;51.70;;;;;;5027546;28;20061;-53
2021/09/06 03:19:07;;;;;;;3.00;2.30;;;23.60;51.70;;;;;;5008755;28;20038;-58
2021/09/06 03:21:32;;;;;;;3.13;1.90;;;23.60;51.70;;;;;;5008628;28;20022;-54
2021/09/06 03:23:58;;;;;;;3.30;2.00;;;23.60;51.70;;;;;;5026624;28;20497;-60
2021/09/06 03:26:24;;;;;;;2.40;1.92;;;23.60;51.70;;;;;;5016888;28;20116;-54
2021/09/06 03:28:49;;;;;;;2.58;1.75;;;23.60;51.70;;;;;;5027756;28;20057;-61
2021/09/06 03:31:15;;;;;;;3.25;2.10;;;23.60;51.70;;;;;;5011840;28;20052;-58
2021/09/06 03:33:41;;;;;;;3.00;2.10;;;23.60;51.70;;;;;;5011709;28;20033;-58
2021/09/06 03:36:07;;;;;;;3.10;2.00;;;23.60;51.70;;;;;;5010537;28;20041;-59
2021/09/06 03:38:33;;;;;;;2.60;2.00;;;23.60;51.70;;;;;;5023935;28;20041;-50
2021/09/06 03:41:00;;;;;;;2.50;1.92;;;23.50;51.60;;;;;;5013087;28;20022;-58
2021/09/06 03:43:25;;;;;;;2.97;1.65;;;23.60;51.70;;;;;;5009377;28;20045;-55
2021/09/06 03:45:51;;;;;;;2.70;1.90;;;23.50;51.60;;;;;;5017915;28;20044;-53
2021/09/06 03:48:17;;;;;;;2.20;1.55;;;23.60;51.70;;;;;;5011071;28;20108;-57
2021/09/06 03:50:42;;;;;;;2.70;2.00;;;23.50;51.60;;;;;;5010118;28;20026;-52
2021/09/06 03:53:09;;;;;;;2.55;1.90;;;23.50;51.60;;;;;;5010027;28;20030;-60
2021/09/06 03:55:35;;;;;;;2.50;1.88;;;23.50;52.20;;;;;;5024287;28;20185;-61
2021/09/06 03:58:00;;;;;;;2.55;2.00;;;23.50;51.60;;;;;;5009531;28;20432;-53
2021/09/06 04:00:26;;;;;;;2.40;1.98;;;23.50;52.20;;;;;;5018898;28;20112;-53
2021/09/06 04:02:52;;;;;;;2.63;1.80;;;23.50;51.60;;;;;;5029271;28;20104;-60
2021/09/06 04:05:17;;;;;;;2.28;1.67;;;23.50;51.70;;;;;;5021478;28;20061;-58
2021/09/06 04:07:43;;;;;;;2.65;1.95;;;23.50;51.60;;;;;;5024897;28;20038;-58
2021/09/06 04:10:10;;;;;;;2.15;1.70;;;23.50;51.60;;;;;;5017781;28;20025;-55
2021/09/06 04:12:36;;;;;;;2.30;1.70;;;23.50;51.60;;;;;;5023971;28;20053;-58
2021/09/06 04:15:03;;;;;;;3.03;1.90;;;23.50;52.20;;;;;;5024664;28;20433;-58
2021/09/06 04:17:29;;;;;;;1.98;1.60;;;23.50;51.70;;;;;;5017943;28;20030;-58
2021/09/06 04:19:55;;;;;;;2.58;1.98;;;23.50;51.70;;;;;;5027302;28;20021;-60
2021/09/06 04:22:20;;;;;;;2.15;1.60;;;23.40;51.60;;;;;;5027304;28;20059;-56
2021/09/06 04:24:46;;;;;;;2.95;2.10;;;23.40;51.60;;;;;;5026560;28;20022;-52
2021/09/06 04:27:12;;;;;;;2.63;1.90;;;23.40;51.70;;;;;;5024668;28;20068;-57
2021/09/06 04:29:37;;;;;;;2.92;1.92;;;23.40;51.70;;;;;;5027195;28;20133;-57
2021/09/06 04:32:03;;;;;;;2.42;1.90;;;23.40;51.70;;;;;;5024487;28;20492;-52
2021/09/06 04:34:29;;;;;;;2.38;1.70;;;23.40;51.60;;;;;;5028290;28;20044;-58
2021/09/06 04:36:54;;;;;;;2.30;1.80;;;23.40;51.70;;;;;;5020591;28;20022;-50
2021/09/06 04:39:20;;;;;;;2.60;1.80;;;23.40;51.70;;;;;;5009159;28;20025;-58
2021/09/06 04:41:46;;;;;;;2.22;1.70;;;23.40;51.70;;;;;;5027615;28;20022;-57
2021/09/06 04:44:11;;;;;;;2.70;2.00;;;23.40;51.70;;;;;;5028565;28;20103;-56
2021/09/06 04:46:37;;;;;;;2.70;1.98;;;23.40;51.70;;;;;;5026286;28;20031;-54
2021/09/06 04:49:04;;;;;;;2.72;1.83;;;23.40;51.70;;;;;;5027157;28;20033;-47
2021/09/06 04:51:30;;;;;;;2.70;1.90;;;23.40;51.70;;;;;;5022541;28;20650;-59
2021/09/06 04:53:56;;;;;;;2.50;1.90;;;23.40;51.70;;;;;;5026785;28;20061;-52
2021/09/06 04:56:23;;;;;;;2.58;1.92;;;23.40;51.70;;;;;;5026993;28;20029;-52
2021/09/06 04:58:49;;;;;;;2.70;2.03;;;23.40;51.70;;;;;;5021507;28;20777;-51
2021/09/06 05:01:15;;;;;;;2.67;2.00;;;23.40;51.70;;;;;;5028429;28;20030;-60
2021/09/06 05:03:41;;;;;;;2.08;1.60;;;23.30;51.70;;;;;;5021557;28;20025;-48
2021/09/06 05:06:06;;;;;;;2.35;1.88;;;23.30;52.00;;;;;;5023669;28;20087;-55
2021/09/06 05:08:32;;;;;;;2.33;1.75;;;23.30;51.70;;;;;;5019738;28;20063;-57
2021/09/06 05:10:57;;;;;;;2.80;2.00;;;23.30;51.70;;;;;;5014719;28;20029;-51
2021/09/06 05:13:24;;;;;;;2.60;1.80;;;23.30;51.70;;;;;;5020142;28;20037;-51
2021/09/06 05:15:50;;;;;;;2.80;2.00;;;23.30;51.70;;;;;;5028416;28;20386;-54
2021/09/06 05:18:16;;;;;;;2.28;1.70;;;23.30;51.70;;;;;;5022628;28;20064;-56
2021/09/06 05:20:42;;;;;;;2.45;1.90;;;23.30;51.70;;;;;;5021340;28;20025;-56
2021/09/06 05:23:08;;;;;;;2.35;1.70;;;23.30;51.70;;;;;;5014520;28;20428;-53
2021/09/06 05:25:34;;;;;;;2.35;1.88;;;23.30;51.70;;;;;;5027913;28;20040;-56
2021/09/06 05:28:00;;;;;;;2.55;1.90;;;23.30;51.70;;;;;;5023223;28;20132;-57
2021/09/06 05:30:26;;;;;;;2.90;1.70;;;23.30;51.70;;;;;;5022031;28;20045;-58
2021/09/06 05:32:51;;;;;;;2.55;1.85;;;23.30;51.70;;;;;;5027844;28;20033;-58
2021/09/06 05:35:17;;;;;;;2.20;1.70;;;23.30;51.70;;;;;;5023132;28;20097;-52
2021/09/06 05:37:42;;;;;;;2.25;1.70;;;23.30;51.70;;;;;;5019386;28;20026;-55
2021/09/06 05:40:09;;;;;;;2.22;1.70;;;23.30;51.70;;;;;;5016643;28;20026;-57
2021/09/06 05:42:34;;;;;;;2.25;1.70;;;23.30;51.70;;;;;;5018239;28;20041;-59
2021/09/06 05:45:00;;;;;;;1.90;1.50;;;23.20;51.60;;;;;;5025788;28;20029;-56
2021/09/06 05:47:26;;;;;;;2.25;1.80;;;23.30;51.70;;;;;;5025115;28;20631;-54
2021/09/06 05:49:51;;;;;;;2.28;1.67;;;23.30;51.70;;;;;;5008043;28;20095;-58
2021/09/06 05:52:17;;;;;;;2.40;1.80;;;23.20;51.70;;;;;;5014733;28;20037;-55
2021/09/06 05:54:43;;;;;;;2.40;1.70;;;23.30;51.70;;;;;;5012358;28;20176;-51
2021/09/06 05:57:08;;;;;;;2.72;1.80;;;23.30;51.80;;;;;;5009230;28;20022;-54
2021/09/06 05:59:34;;;;;;;2.50;1.80;;;23.30;51.80;;;;;;5006633;28;20022;-56
2021/09/06 06:02:00;;;;;;;2.58;1.73;;;23.30;51.70;;;;;;5012980;28;20374;-58
2021/09/06 06:04:25;;;;;;;2.50;1.90;;;23.30;51.70;;;;;;5024988;28;20033;-60
2021/09/06 06:06:51;;;;;;;2.40;1.60;;;23.40;51.70;;;;;;5021785;28;20089;-58
2021/09/06 06:09:16;;;;;;;2.30;1.70;;;23.40;51.70;;;;;;5018828;28;20346;-57
2021/09/06 06:11:42;;;;;;;2.33;1.70;;;23.40;51.50;;;;;;5013938;28;20026;-57
2021/09/06 06:14:09;;;;;;;2.60;1.73;;;23.40;51.50;;;;;;5007201;28;20030;-56
2021/09/06 06:16:35;;;;;;;2.35;1.73;;;23.50;51.40;;;;;;5012020;28;20088;-55
2021/09/06 06:19:01;;;;;;;2.50;1.80;;;23.50;51.40;;;;;;5024288;28;20084;-54
2021/09/06 06:21:27;;;;;;;2.38;1.90;;;23.50;51.40;;;;;;5027029;28;20038;-60
2021/09/06 06:23:53;;;;;;;2.58;1.92;;;23.60;51.40;;;;;;5027265;28;20021;-52
2021/09/06 06:26:19;;;;;;;2.67;1.80;;;23.60;51.30;;;;;;5016612;28;20622;-58
2021/09/06 06:28:45;;;;;;;2.55;1.80;;;23.60;51.20;;;;;;5023993;28;20104;-54
2021/09/06 06:31:10;;;;;;;2.30;1.90;;;23.70;51.70;;;;;;5011070;28;20048;-59
2021/09/06 06:33:36;;;;;;;2.50;1.90;;;23.70;51.20;;;;;;5014177;28;20494;-58
2021/09/06 06:36:03;;;;;;;2.55;2.00;;;23.70;51.10;;;;;;5021816;28;20022;-56
2021/09/06 06:38:31;;;;;;;2.30;1.75;;;23.70;51.10;;;;;;5009998;28;20490;-56
2021/09/06 06:40:56;;;;;;;2.55;2.08;;;23.70;51.00;;;;;;5031026;28;20131;-58
2021/09/06 06:43:22;;;;;;;2.60;2.10;;;23.80;51.10;;;;;;5025630;28;20045;-52
2021/09/06 06:45:48;;;;;;;2.45;1.90;;;23.80;51.00;;;;;;5008448;28;20072;-60
2021/09/06 06:48:14;;;;;;;2.65;1.83;;;23.80;51.00;;;;;;5020711;28;20030;-54
2021/09/06 06:50:39;;;;;;;2.83;2.30;;;23.80;51.40;;;;;;5037918;28;20099;-56
2021/09/06 06:53:05;;;;;;;2.60;1.90;;;23.90;50.90;;;;;;5027637;28;20442;-60
2021/09/06 06:55:31;;;;;;;2.35;1.73;;;23.90;50.80;;;;;;5033243;28;20017;-54
2021/09/06 06:57:56;;;;;;;2.45;1.75;;;23.90;50.90;;;;;;5014335;28;20036;-60
2021/09/06 07:00:22;;;;;;;2.78;1.80;;;23.90;51.00;;;;;;5012021;28;20061;-52
2021/09/06 07:02:48;;;;;;;2.92;1.90;;;23.90;50.80;;;;;;5029115;28;20072;-51
2021/09/06 07:05:13;;;;;;;2.30;1.75;;;23.90;51.30;;;;;;5031674;28;20072;-49
2021/09/06 07:07:40;;;;;;;2.20;1.73;;;23.90;50.90;;;;;;5020728;28;20050;-58
2021/09/06 07:10:07;;;;;;;3.20;2.00;;;23.90;50.90;;;;;;5014562;28;20060;-58
2021/09/06 07:12:32;;;;;;;2.58;1.95;;;24.00;50.80;;;;;;5032059;28;20045;-58
2021/09/06 07:14:58;;;;;;;2.30;1.80;;;24.00;50.80;;;;;;5031290;28;20029;-52
2021/09/06 07:17:24;;;;;;;2.78;1.90;;;24.00;50.70;;;;;;5029680;28;20041;-57
2021/09/06 07:19:49;;;;;;;2.58;1.95;;;24.10;50.80;;;;;;5026506;28;20109;-59
2021/09/06 07:22:15;;;;;;;3.38;2.00;;;24.10;50.70;;;;;;5031640;28;20219;-57
2021/09/06 07:24:40;;;;;;;2.55;1.98;;;24.10;50.80;;;;;;5029563;28;20033;-51
2021/09/06 07:27:06;;;;;;;2.47;1.80;;;24.10;50.80;;;;;;5029708;28;20389;-46
2021/09/06 07:29:32;;;;;;;2.85;2.10;;;24.10;50.70;;;;;;5018574;28;20029;-57
2021/09/06 07:31:57;;;;;;;2.53;1.90;;;24.10;50.60;;;;;;5025752;28;20072;-60
2021/09/06 07:34:23;;;;;;;2.40;1.95;;;24.10;50.60;;;;;;5050215;28;20028;-51
2021/09/06 07:36:48;;;;;;;2.58;1.80;;;24.20;50.60;;;;;;5012023;28;20026;-58
2021/09/06 07:39:16;;;;;;;2.88;1.95;;;24.20;50.60;;;;;;5019257;28;20030;-56
2021/09/06 07:41:43;;;;;;;2.45;1.85;;;24.20;50.60;;;;;;5030983;28;20121;-58
2021/09/06 07:44:09;;;;;;;2.70;1.90;;;24.20;50.60;;;;;;5049964;28;20465;-58
2021/09/06 07:46:34;;;;;;;2.67;1.70;;;24.20;50.40;;;;;;5020364;28;20029;-54
2021/09/06 07:49:00;;;;;;;2.13;1.73;;;24.30;50.50;;;;;;5011610;28;20069;-60
2021/09/06 07:51:26;;;;;;;2.80;1.85;;;24.30;50.50;;;;;;5013749;28;20029;-54
2021/09/06 07:53:51;;;;;;;2.58;1.95;;;24.30;50.50;;;;;;5015167;28;20529;-57
2021/09/06 07:56:17;;;;;;;2.67;2.00;;;24.30;50.50;;;;;;5011288;28;20026;-58
2021/09/06 07:58:42;;;;;;;2.03;1.75;;;24.30;51.00;;;;;;5010907;28;20041;-52
2021/09/06 08:01:08;;;;;;;2.38;1.60;;;24.30;50.50;;;;;;5010491;28;20034;-61
2021/09/06 08:03:34;;;;;;;2.50;1.88;;;24.30;50.50;;;;;;5024089;28;20040;-58
2021/09/06 08:06:00;;;;;;;2.47;1.85;;;24.40;50.70;;;;;;5029445;28;20026;-58
2021/09/06 08:08:30;;;;;;;2.33;1.98;;;24.40;50.60;;;;;;5021527;28;20077;-58
2021/09/06 08:10:56;;;;;;;2.80;2.03;;;24.40;50.50;;;;;;5031603;28;20123;-54
2021/09/06 08:13:21;;;;;;;2.60;2.00;;;24.40;50.30;;;;;;5025607;28;20155;-59
2021/09/06 08:15:47;;;;;;;2.60;2.00;;;24.50;50.30;;;;;;5028851;28;21052;-57
2021/09/06 08:18:13;;;;;;;2.70;2.00;;;24.50;50.20;;;;;;5038011;28;20026;-57
2021/09/06 08:20:39;;;;;;;2.70;1.90;;;24.50;50.10;;;;;;5009467;28;20109;-60
2021/09/06 08:23:04;;;;;;;2.78;2.17;;;24.50;50.10;;;;;;5013662;28;20542;-61
2021/09/06 08:25:30;;;;;;;2.60;2.00;;;24.60;50.10;;;;;;5030150;28;20025;-60
2021/09/06 08:27:56;;;;;;;2.40;1.98;;;24.50;50.00;;;;;;5022987;28;20051;-56
2021/09/06 08:30:22;;;;;;;2.80;2.00;;;24.60;50.10;;;;;;5026840;28;20038;-61
2021/09/06 08:32:48;;;;;;;2.65;2.20;;;24.60;50.10;;;;;;5014961;28;20026;-53
2021/09/06 08:35:14;;;;;;;2.60;2.20;;;24.60;50.10;;;;;;5022035;28;20612;-57
2021/09/06 08:37:41;;;;;;;2.92;2.00;;;24.60;50.10;;;;;;5008744;28;20053;-59
2021/09/06 08:40:08;;;;;;;4.07;2.10;;;24.60;50.10;;;;;;5024895;28;20084;-59
2021/09/06 08:42:36;;;;;;;3.80;2.50;;;24.70;50.10;;;;;;5021042;28;20045;-51
2021/09/06 08:45:02;;;;;;;2.67;2.05;;;24.60;50.00;;;;;;5023043;28;20034;-60
2021/09/06 08:47:28;;;;;;;3.13;2.10;;;24.60;50.00;;;;;;5022997;28;20221;-53
2021/09/06 08:49:53;;;;;;;2.65;1.90;;;24.70;50.10;;;;;;5026084;28;20044;-54
2021/09/06 08:52:19;;;;;;;3.03;2.20;;;24.60;50.00;;;;;;5021996;28;20056;-60
2021/09/06 08:54:45;;;;;;;3.55;2.30;;;24.70;50.10;;;;;;5024251;28;20109;-60
2021/09/06 08:57:11;;;;;;;2.75;2.20;;;24.70;50.10;;;;;;5008809;28;20073;-56
2021/09/06 08:59:41;;;;;;;3.65;2.40;;;24.70;50.00;;;;;;5019403;28;20021;-52
2021/09/06 09:02:07;;;;;;;2.60;2.20;;;24.70;50.00;;;;;;5016649;28;20057;-58
2021/09/06 09:04:32;;;;;;;3.00;2.35;;;24.70;50.00;;;;;;5016689;28;20044;-60
2021/09/06 09:07:00;;;;;;;3.10;2.15;;;24.70;49.90;;;;;;5012530;28;20033;-52
2021/09/06 09:09:33;;;;;;;2.70;2.00;;;24.70;49.90;;;;;;5028436;28;20068;-54
2021/09/06 09:12:01;;;;;;;3.92;2.03;;;24.80;50.00;;;;;;5016850;28;20038;-52
2021/09/06 09:14:27;;;;;;;3.00;1.90;;;24.80;50.00;;;;;;5008356;28;20037;-53
2021/09/06 09:16:57;;;;;;;3.42;2.08;;;24.80;50.10;;;;;;5027176;28;20032;-56
2021/09/06 09:19:23;;;;;;;2.60;2.00;;;24.80;50.00;;;;;;5017917;28;20026;-55
2021/09/06 09:21:54;;;;;;;2.40;1.85;;;24.80;50.00;;;;;;5014077;28;20025;-60
2021/09/06 09:24:21;;;;;;;2.55;2.00;;;24.80;50.10;;;;;;5028475;28;20026;-58
2021/09/06 09:27:02;;;;;;;2.38;1.90;;;24.80;50.00;;;;;;5037964;28;20022;-59
2021/09/06 09:29:28;;;;;;;2.70;2.20;;;24.80;50.00;;;;;;5008724;28;20541;-59
2021/09/06 09:32:02;;;;;;;2.92;2.00;;;24.80;50.00;;;;;;5012600;28;20040;-51
2021/09/06 09:34:31;;;;;;;2.58;1.90;;;24.80;50.00;;;;;;5010690;28;20113;-53
2021/09/06 09:36:58;;;;;;;2.50;1.73;;;24.80;50.10;;;;;;5009576;28;20044;-54
2021/09/06 09:39:24;;;;;;;2.30;1.85;;;24.80;50.20;;;;;;5019118;28;20025;-53
2021/09/06 09:42:01;;;;;;;2.30;1.60;;;24.80;50.20;;;;;;5015644;28;20022;-57
2021/09/06 09:44:27;;;;;;;2.80;1.73;;;24.80;50.00;;;;;;5007366;28;20045;-58
2021/09/06 09:46:59;;;;;;;2.40;1.80;;;24.90;50.20;;;;;;5020264;28;20036;-58
2021/09/06 09:49:27;;;;;;;2.30;1.80;;;24.90;50.20;;;;;;5027442;28;20040;-53
2021/09/06 09:51:53;;;;;;;2.70;1.88;;;24.90;50.30;;;;;;5008812;28;20102;-58
2021/09/06 09:54:19;;;;;;;2.40;1.80;;;24.90;50.20;;;;;;5020245;28;20440;-58
2021/09/06 09:56:46;;;;;;;2.63;2.20;;;24.90;50.10;;;;;;5018462;28;20026;-58
2021/09/06 09:59:13;;;;;;;2.20;1.75;;;25.00;50.10;;;;;;5007856;28;20033;-60
2021/09/06 10:01:44;;;;;;;2.70;2.03;;;25.00;50.20;;;;;;5009097;28;20386;-59
2021/09/06 10:04:13;;;;;;;2.60;1.77;;;25.00;50.10;;;;;;5008540;28;20022;-58
2021/09/06 10:06:40;;;;;;;;;;;25.00;50.30;;;;;;5015823;28;20025;-60
2021/09/06 10:09:06;;;;;;;2.28;1.65;;;25.00;50.30;;;;;;5024278;28;20011;-55
2021/09/06 10:11:41;;;;;;;3.00;2.00;;;25.00;50.10;;;;;;5010171;28;20132;-55
2021/09/06 10:14:14;;;;;;;2.75;2.10;;;25.00;50.10;;;;;;5011036;28;20160;-58
2021/09/06 10:16:41;;;;;;;2.75;2.20;;;25.00;50.10;;;;;;5032056;28;20020;-55
2021/09/06 10:19:11;;;;;;;3.08;2.25;;;25.10;50.00;;;;;;5012393;28;20038;-52
2021/09/06 10:21:48;;;;;;;2.97;2.55;;;25.10;50.00;;;;;;5009637;28;20121;-52
2021/09/06 10:24:17;;;;;;;3.80;3.00;;;25.10;49.90;;;;;;5010495;28;20037;-50
2021/09/06 10:26:44;;;;;;;3.70;3.00;;;25.10;49.90;;;;;;5010829;28;20029;-51
2021/09/06 10:29:19;;;;;;;3.60;2.92;;;25.10;49.90;;;;;;5018144;28;20375;-58
2021/09/06 10:32:06;;;;;;;3.60;2.97;;;25.10;49.90;;;;;;5008890;28;20389;-57
2021/09/06 10:34:32;;;;;;;3.90;3.17;;;25.10;49.90;;;;;;5010276;28;20115;-56
2021/09/06 10:37:03;;;;;;;3.80;3.05;;;25.10;49.90;;;;;;5007423;28;20269;-51
2021/09/06 10:39:31;;;;;;;4.18;3.30;;;25.10;49.80;;;;;;5011547;28;20450;-53
2021/09/06 10:42:06;;;;;;;3.38;2.88;;;25.10;49.90;;;;;;5009820;28;20044;-59
2021/09/06 10:44:39;;;;;;;3.92;3.20;;;25.10;49.90;;;;;;5030187;28;20545;-60
2021/09/06 10:47:10;;;;;;;3.58;3.00;;;25.10;49.90;;;;;;5008617;28;20029;-58
2021/09/06 10:49:40;;;;;;;4.95;3.30;;;25.10;49.90;;;;;;5007940;28;20037;-53
2021/09/06 10:52:06;;;;;;;3.80;3.25;;;25.10;49.90;;;;;;5007657;28;20050;-58
2021/09/06 10:54:33;;;;;;;4.00;3.10;;;25.10;49.90;;;;;;5024386;28;20532;-59
2021/09/06 10:56:59;;;;;;;3.47;2.83;;;25.10;49.90;;;;;;5015278;28;20070;-59
2021/09/06 10:59:26;;;;;;;3.35;3.00;;;25.10;49.80;;;;;;5012800;28;20108;-57
2021/09/06 11:01:54;;;;;;;3.20;2.70;;;25.10;49.80;;;;;;5017978;28;20021;-56
2021/09/06 11:04:23;;;;;;;3.47;2.80;;;25.10;49.80;;;;;;5026938;28;20036;-60
2021/09/06 11:07:00;;;;;;;3.63;3.20;;;25.10;49.90;;;;;;5024500;28;20045;-52
2021/09/06 11:09:28;;;;;;;3.45;2.90;;;25.20;50.00;;;;;;5012016;28;20033;-59
2021/09/06 11:12:06;;;;;;;3.65;2.83;;;25.20;50.50;;;;;;5020172;28;20045;-52
2021/09/06 11:14:43;;;;;;;3.40;2.80;;;25.20;50.00;;;;;;5019460;28;20034;-53
2021/09/06 11:17:17;;;;;;;3.50;3.00;;;25.20;49.90;;;;;;5008525;28;20113;-59
2021/09/06 11:19:43;;;;;;;3.90;3.17;;;25.20;49.90;;;;;;5022213;28;20026;-59
2021/09/06 11:22:15;;;;;;;3.40;2.85;;;25.20;49.90;;;;;;5020185;28;20299;-53
2021/09/06 11:24:42;;;;;;;3.53;2.90;;;25.30;49.90;;;;;;5022777;28;20100;-50
2021/09/06 11:27:09;;;;;;;3.42;2.75;;;25.20;49.90;;;;;;5020716;28;20501;-55
2021/09/06 11:29:41;;;;;;;3.80;3.15;;;25.30;50.00;;;;;;5015899;28;20030;-60
2021/09/06 11:32:06;;;;;;;3.90;3.10;;;25.30;50.40;;;;;;5027166;28;20109;-56
2021/09/06 11:34:34;;;;;;;3.65;2.88;;;25.30;49.90;;;;;;5016780;28;20556;-58
2021/09/06 11:36:59;;;;;;;3.33;2.88;;;25.30;49.80;;;;;;5018155;28;20028;-50
2021/09/06 11:39:30;;;;;;;3.28;2.67;;;25.30;49.80;;;;;;5021011;28;20470;-55
2021/09/06 11:41:57;;;;;;;3.42;2.80;;;25.30;49.80;;;;;;5018714;28;20086;-58
2021/09/06 11:44:23;;;;;;;3.13;2.83;;;25.30;49.80;;;;;;5006847;28;20030;-60
2021/09/06 11:46:48;;;;;;;4.00;3.10;;;25.40;49.90;;;;;;5013159;28;20038;-59
2021/09/06 11:49:19;;;;;;;3.42;2.97;;;25.40;49.80;;;;;;5014756;28;20435;-58
2021/09/06 11:51:45;;;;;;;3.40;2.83;;;25.40;49.80;;;;;;5013471;28;20050;-59
2021/09/06 11:54:13;;;;;;;3.70;3.00;;;25.40;49.90;;;;;;5028252;28;20037;-53
2021/09/06 11:56:39;;;;;;;3.28;2.80;;;25.40;49.90;;;;;;5033001;28;20059;-56
2021/09/06 11:59:04;;;;;;;3.45;2.97;;;25.40;49.80;;;;;;5010846;28;20027;-55
2021/09/06 12:01:30;;;;;;;3.35;2.80;;;25.40;49.70;;;;;;5029500;28;20047;-55
2021/09/06 12:04:09;;;;;;;3.45;2.90;;;25.40;50.20;;;;;;5024375;28;20022;-53
2021/09/06 12:06:37;;;;;;;3.83;3.00;;;25.40;49.70;;;;;;5010139;28;20030;-52
2021/09/06 12:09:04;;;;;;;3.40;2.80;;;25.40;49.70;;;;;;5020090;28;20033;-58
2021/09/06 12:11:37;;;;;;;3.35;2.80;;;25.50;49.70;;;;;;5022637;28;20040;-57
2021/09/06 12:14:06;;;;;;;3.75;2.88;;;25.40;49.70;;;;;;5016375;28;20053;-58
2021/09/06 12:16:31;;;;;;;3.03;2.40;;;25.50;49.70;;;;;;5012740;28;21922;-59
2021/09/06 12:18:58;;;;;;;3.15;2.75;;;25.50;49.80;;;;;;5018086;28;20104;-60
2021/09/06 12:21:25;;;;;;;3.50;3.10;;;25.50;49.70;;;;;;5021982;28;20064;-55
2021/09/06 12:24:03;;;;;;;3.67;3.17;;;25.50;49.70;;;;;;5031871;28;20025;-50
2021/09/06 12:26:43;;;;;;;3.30;2.90;;;25.60;49.70;;;;;;5010457;28;20397;-50
2021/09/06 12:29:09;;;;;;;3.30;2.80;;;25.50;49.70;;;;;;5017343;28;20100;-57
2021/09/06 12:31:43;;;;;;;3.70;3.08;;;25.50;49.60;;;;;;5030109;28;20025;-54
2021/09/06 12:34:13;;;;;;;3.17;2.53;;;25.60;49.60;;;;;;5026451;28;20041;-54
2021/09/06 12:36:40;;;;;;;3.60;2.60;;;25.60;49.60;;;;;;5028779;28;20061;-58
2021/09/06 12:39:06;;;;;;;3.20;2.88;;;25.60;49.60;;;;;;5013999;28;20092;-60
2021/09/06 12:41:31;;;;;;;3.05;2.70;;;25.60;49.60;;;;;;5008620;28;20409;-59
2021/09/06 12:43:57;;;;;;;3.50;2.88;;;25.60;49.60;;;;;;5019935;28;20437;-57
2021/09/06 12:46:23;;;;;;;3.60;3.00;;;25.60;49.60;;;;;;5029616;28;20094;-55